KHFF/HFF METAR and TAF weather

Enter ICAO airport designator
Station Type Date Time Source
KHFF METAR 2019/05/21 20:56 UTC NOAA

KHFF 212056Z AUTO 04006KT 10SM CLR 32/14 A2993 RMK AO2 SLP148 T03210144 57013 $


Station Type Date Time Source
KHFF Decoded METAR 2019/05/21 20:56 UTC NOAA

Mackall U. S. Army Airfield, NC, United States (KHFF) 35-02N 079-30W
May 21, 2019 - 04:56 PM EDT / 2019.05.21 2056 UTC
Wind: from the NE (040 degrees) at 7 MPH (6 KT):0
Visibility: 10 mile(s):0
Sky conditions: clear
Temperature: 89.8 F (32.1 C)
Dew Point: 57.9 F (14.4 C)
Relative Humidity: 34%
Pressure (altimeter): 29.93 in. Hg (1013 hPa)
Pressure tendency: 0.04 inches (1.3 hPa) lower than three hours ago
ob: KHFF 212056Z AUTO 04006KT 10SM CLR 32/14 A2993 RMK AO2 SLP148 T03210144 57013
cycle: 21

Station Type Date Time Source
KHFF TAF UTC NOAA

Error!

Example: see airport list